sensor_id;sensor_type;location;lat;lon;timestamp;pressure;altitude;pressure_sealevel;temperature;humidity
57827;BME280;43656;57.746;11.780;2023-05-23T00:00:59;101387.16;;;18.92;67.50
57827;BME280;43656;57.746;11.780;2023-05-23T00:03:25;101394.38;;;18.98;67.33
57827;BME280;43656;57.746;11.780;2023-05-23T00:05:51;101373.72;;;18.90;66.96
57827;BME280;43656;57.746;11.780;2023-05-23T00:08:17;101390.09;;;19.02;67.08
57827;BME280;43656;57.746;11.780;2023-05-23T00:10:43;101390.22;;;18.95;67.23
57827;BME280;43656;57.746;11.780;2023-05-23T00:13:09;101388.44;;;19.01;67.00
57827;BME280;43656;57.746;11.780;2023-05-23T00:15:40;101386.19;;;18.98;67.02
57827;BME280;43656;57.746;11.780;2023-05-23T00:18:06;101386.19;;;18.98;67.04
57827;BME280;43656;57.746;11.780;2023-05-23T00:20:33;101380.38;;;18.94;67.11
57827;BME280;43656;57.746;11.780;2023-05-23T00:23:01;101330.16;;;18.55;67.13
57827;BME280;43656;57.746;11.780;2023-05-23T00:25:28;101378.13;;;18.91;66.80
57827;BME280;43656;57.746;11.780;2023-05-23T00:28:02;101378.22;;;18.96;67.05
57827;BME280;43656;57.746;11.780;2023-05-23T00:30:32;101384.75;;;18.95;66.96
57827;BME280;43656;57.746;11.780;2023-05-23T00:32:58;101376.72;;;18.89;66.92
57827;BME280;43656;57.746;11.780;2023-05-23T00:35:24;101367.25;;;18.80;66.97
57827;BME280;43656;57.746;11.780;2023-05-23T00:37:50;101365.59;;;18.78;66.78
57827;BME280;43656;57.746;11.780;2023-05-23T00:40:19;101376.22;;;18.92;66.69
57827;BME280;43656;57.746;11.780;2023-05-23T00:42:44;101377.06;;;18.92;66.38
57827;BME280;43656;57.746;11.780;2023-05-23T00:45:11;101353.38;;;18.81;66.38
57827;BME280;43656;57.746;11.780;2023-05-23T00:47:38;101369.22;;;18.96;66.38
57827;BME280;43656;57.746;11.780;2023-05-23T00:50:06;101375.50;;;18.96;66.49
57827;BME280;43656;57.746;11.780;2023-05-23T00:52:32;101377.41;;;18.96;66.36
57827;BME280;43656;57.746;11.780;2023-05-23T00:54:58;101379.44;;;18.89;66.83
57827;BME280;43656;57.746;11.780;2023-05-23T00:57:24;101376.13;;;18.87;66.62
57827;BME280;43656;57.746;11.780;2023-05-23T00:59:50;101376.13;;;18.87;66.73
57827;BME280;43656;57.746;11.780;2023-05-23T01:02:15;101360.63;;;18.75;66.84
57827;BME280;43656;57.746;11.780;2023-05-23T01:04:42;101341.28;;;18.65;66.95
57827;BME280;43656;57.746;11.780;2023-05-23T01:07:08;101359.19;;;18.73;66.95
57827;BME280;43656;57.746;11.780;2023-05-23T01:09:34;101370.44;;;18.76;66.53
57827;BME280;43656;57.746;11.780;2023-05-23T01:12:08;101365.00;;;18.76;66.14
57827;BME280;43656;57.746;11.780;2023-05-23T01:14:46;101365.25;;;18.75;65.88
57827;BME280;43656;57.746;11.780;2023-05-23T01:17:22;101335.84;;;18.53;65.96
57827;BME280;43656;57.746;11.780;2023-05-23T01:20:02;101347.22;;;18.62;65.45
57827;BME280;43656;57.746;11.780;2023-05-23T01:27:55;101354.91;;;18.65;64.88
57827;BME280;43656;57.746;11.780;2023-05-23T01:30:23;101361.19;;;18.66;64.70
57827;BME280;43656;57.746;11.780;2023-05-23T01:32:52;101331.47;;;18.52;64.58
57827;BME280;43656;57.746;11.780;2023-05-23T01:35:23;101359.06;;;18.68;64.30
57827;BME280;43656;57.746;11.780;2023-05-23T01:37:50;101356.81;;;18.65;64.19
57827;BME280;43656;57.746;11.780;2023-05-23T01:40:15;101354.91;;;18.65;64.13
57827;BME280;43656;57.746;11.780;2023-05-23T01:42:40;101340.81;;;18.57;63.77
57827;BME280;43656;57.746;11.780;2023-05-23T01:45:07;101342.38;;;18.64;63.61
57827;BME280;43656;57.746;11.780;2023-05-23T01:47:33;101343.31;;;18.58;63.54
57827;BME280;43656;57.746;11.780;2023-05-23T01:50:00;101278.69;;;18.18;63.10
57827;BME280;43656;57.746;11.780;2023-05-23T01:52:27;101338.44;;;18.60;62.68
57827;BME280;43656;57.746;11.780;2023-05-23T01:54:53;101325.41;;;18.62;62.42
57827;BME280;43656;57.746;11.780;2023-05-23T01:57:21;101338.44;;;18.60;62.17
57827;BME280;43656;57.746;11.780;2023-05-23T01:59:47;101329.44;;;18.60;62.05
57827;BME280;43656;57.746;11.780;2023-05-23T02:02:12;101332.16;;;18.60;62.08
57827;BME280;43656;57.746;11.780;2023-05-23T02:04:38;101321.50;;;18.58;61.70
57827;BME280;43656;57.746;11.780;2023-05-23T02:07:03;101314.88;;;18.54;61.79
57827;BME280;43656;57.746;11.780;2023-05-23T02:09:30;101314.50;;;18.50;61.50
57827;BME280;43656;57.746;11.780;2023-05-23T02:11:55;101304.47;;;18.51;61.46
57827;BME280;43656;57.746;11.780;2023-05-23T02:14:21;101303.28;;;18.47;61.53
57827;BME280;43656;57.746;11.780;2023-05-23T02:16:48;101295.69;;;18.37;61.29
57827;BME280;43656;57.746;11.780;2023-05-23T02:19:13;101300.66;;;18.40;61.24
57827;BME280;43656;57.746;11.780;2023-05-23T02:21:39;101297.38;;;18.38;61.00
57827;BME280;43656;57.746;11.780;2023-05-23T02:24:04;101302.00;;;18.38;60.65
57827;BME280;43656;57.746;11.780;2023-05-23T02:26:30;101268.00;;;18.28;60.51
57827;BME280;43656;57.746;11.780;2023-05-23T02:28:55;101285.75;;;18.43;60.32
57827;BME280;43656;57.746;11.780;2023-05-23T02:31:20;101274.16;;;18.36;60.51
57827;BME280;43656;57.746;11.780;2023-05-23T02:33:46;101279.34;;;18.37;60.73
57827;BME280;43656;57.746;11.780;2023-05-23T02:36:11;101272.25;;;18.36;60.73
57827;BME280;43656;57.746;11.780;2023-05-23T02:38:37;101263.47;;;18.34;60.80
57827;BME280;43656;57.746;11.780;2023-05-23T02:41:03;101271.53;;;18.41;60.99
57827;BME280;43656;57.746;11.780;2023-05-23T02:43:28;101248.13;;;18.28;61.10
57827;BME280;43656;57.746;11.780;2023-05-23T02:45:54;101266.59;;;18.38;61.21
57827;BME280;43656;57.746;11.780;2023-05-23T02:48:19;101264.06;;;18.36;61.54
57827;BME280;43656;57.746;11.780;2023-05-23T02:50:45;101263.25;;;18.36;61.72
57827;BME280;43656;57.746;11.780;2023-05-23T02:53:10;101233.78;;;18.21;61.87
57827;BME280;43656;57.746;11.780;2023-05-23T02:55:35;101255.09;;;18.36;61.96
57827;BME280;43656;57.746;11.780;2023-05-23T02:58:02;101249.63;;;18.36;62.34
57827;BME280;43656;57.746;11.780;2023-05-23T03:00:30;101248.56;;;18.37;62.26
57827;BME280;43656;57.746;11.780;2023-05-23T03:02:56;101243.34;;;18.35;62.45
57827;BME280;43656;57.746;11.780;2023-05-23T03:05:22;101241.69;;;18.34;62.22
57827;BME280;43656;57.746;11.780;2023-05-23T03:07:47;101241.19;;;18.37;62.39
57827;BME280;43656;57.746;11.780;2023-05-23T03:10:13;101240.97;;;18.39;62.18
57827;BME280;43656;57.746;11.780;2023-05-23T03:12:38;101232.34;;;18.42;62.07
57827;BME280;43656;57.746;11.780;2023-05-23T03:15:04;101225.34;;;18.34;62.05
57827;BME280;43656;57.746;11.780;2023-05-23T03:17:30;101218.84;;;18.35;62.22
57827;BME280;43656;57.746;11.780;2023-05-23T03:19:55;101203.31;;;18.36;62.08
57827;BME280;43656;57.746;11.780;2023-05-23T03:22:20;101210.19;;;18.38;62.31
57827;BME280;43656;57.746;11.780;2023-05-23T03:24:46;101216.53;;;18.44;62.80
57827;BME280;43656;57.746;11.780;2023-05-23T03:27:11;101217.28;;;18.39;63.18
57827;BME280;43656;57.746;11.780;2023-05-23T03:29:37;101214.22;;;18.36;63.60
57827;BME280;43656;57.746;11.780;2023-05-23T03:32:02;101213.38;;;18.35;63.61
57827;BME280;43656;57.746;11.780;2023-05-23T03:34:28;101207.81;;;18.30;63.87
57827;BME280;43656;57.746;11.780;2023-05-23T03:36:54;101216.34;;;18.34;63.98
57827;BME280;43656;57.746;11.780;2023-05-23T03:39:20;101207.00;;;18.29;63.94
57827;BME280;43656;57.746;11.780;2023-05-23T03:41:45;101189.03;;;18.17;63.87
57827;BME280;43656;57.746;11.780;2023-05-23T03:44:11;101208.66;;;18.30;63.90
57827;BME280;43656;57.746;11.780;2023-05-23T03:46:36;101195.97;;;18.24;63.78
57827;BME280;43656;57.746;11.780;2023-05-23T03:49:02;101199.66;;;18.30;63.79
57827;BME280;43656;57.746;11.780;2023-05-23T03:51:28;101196.22;;;18.35;63.76
57827;BME280;43656;57.746;11.780;2023-05-23T03:53:53;101194.88;;;18.37;63.79
57827;BME280;43656;57.746;11.780;2023-05-23T03:56:18;101193.38;;;18.41;63.85
57827;BME280;43656;57.746;11.780;2023-05-23T03:58:44;101189.78;;;18.41;63.64
57827;BME280;43656;57.746;11.780;2023-05-23T04:01:10;101186.91;;;18.47;63.71
57827;BME280;43656;57.746;11.780;2023-05-23T04:03:35;101180.41;;;18.48;63.61
57827;BME280;43656;57.746;11.780;2023-05-23T04:06:00;101192.81;;;18.56;63.89
57827;BME280;43656;57.746;11.780;2023-05-23T04:08:26;101189.28;;;18.55;63.98
57827;BME280;43656;57.746;11.780;2023-05-23T04:10:53;101157.09;;;18.41;63.83
57827;BME280;43656;57.746;11.780;2023-05-23T04:13:19;101186.41;;;18.62;63.91
57827;BME280;43656;57.746;11.780;2023-05-23T04:15:45;101185.91;;;18.65;63.64
57827;BME280;43656;57.746;11.780;2023-05-23T04:18:12;101183.91;;;18.72;63.51
57827;BME280;43656;57.746;11.780;2023-05-23T04:20:39;101183.16;;;18.77;63.28
57827;BME280;43656;57.746;11.780;2023-05-23T04:23:04;101170.72;;;18.69;63.18
57827;BME280;43656;57.746;11.780;2023-05-23T04:25:30;101183.84;;;18.84;63.17
57827;BME280;43656;57.746;11.780;2023-05-23T04:27:55;101163.59;;;18.80;62.84
57827;BME280;43656;57.746;11.780;2023-05-23T04:30:21;101171.94;;;18.90;62.66
57827;BME280;43656;57.746;11.780;2023-05-23T04:32:47;101166.34;;;18.97;62.16
57827;BME280;43656;57.746;11.780;2023-05-23T04:35:12;101163.03;;;18.95;61.77
57827;BME280;43656;57.746;11.780;2023-05-23T04:37:38;101169.22;;;19.07;61.58
57827;BME280;43656;57.746;11.780;2023-05-23T04:40:07;101162.91;;;19.18;61.52
57827;BME280;43656;57.746;11.780;2023-05-23T04:42:33;101154.94;;;19.17;61.42
57827;BME280;43656;57.746;11.780;2023-05-23T04:44:58;101153.78;;;19.13;61.63
57827;BME280;43656;57.746;11.780;2023-05-23T04:47:26;101145.38;;;19.14;62.11
57827;BME280;43656;57.746;11.780;2023-05-23T04:49:53;101151.31;;;19.11;62.60
57827;BME280;43656;57.746;11.780;2023-05-23T04:52:19;101143.88;;;19.07;63.36
57827;BME280;43656;57.746;11.780;2023-05-23T04:54:45;101146.59;;;19.07;63.52
57827;BME280;43656;57.746;11.780;2023-05-23T04:57:13;101136.28;;;19.09;63.97
57827;BME280;43656;57.746;11.780;2023-05-23T04:59:38;101132.88;;;19.18;63.95
57827;BME280;43656;57.746;11.780;2023-05-23T05:02:05;101131.06;;;19.24;63.98
57827;BME280;43656;57.746;11.780;2023-05-23T05:04:31;101130.91;;;19.31;64.23
57827;BME280;43656;57.746;11.780;2023-05-23T05:06:56;101130.28;;;19.45;64.18
57827;BME280;43656;57.746;11.780;2023-05-23T05:09:22;101111.88;;;19.36;64.20
57827;BME280;43656;57.746;11.780;2023-05-23T05:11:50;101121.03;;;19.46;64.21
57827;BME280;43656;57.746;11.780;2023-05-23T05:14:15;101126.97;;;19.60;64.10
57827;BME280;43656;57.746;11.780;2023-05-23T05:16:40;101125.16;;;19.66;64.14
57827;BME280;43656;57.746;11.780;2023-05-23T05:19:07;101117.22;;;19.64;64.07
57827;BME280;43656;57.746;11.780;2023-05-23T05:21:33;101115.06;;;19.66;63.75
57827;BME280;43656;57.746;11.780;2023-05-23T05:23:58;101109.09;;;19.69;63.13
57827;BME280;43656;57.746;11.780;2023-05-23T05:26:24;101116.03;;;19.77;63.16
57827;BME280;43656;57.746;11.780;2023-05-23T05:28:51;101129.13;;;19.75;62.95
57827;BME280;43656;57.746;11.780;2023-05-23T05:31:17;101109.34;;;19.68;62.99
57827;BME280;43656;57.746;11.780;2023-05-23T05:33:43;101109.75;;;19.60;62.52
57827;BME280;43656;57.746;11.780;2023-05-23T05:36:10;101128.03;;;19.59;62.58
57827;BME280;43656;57.746;11.780;2023-05-23T05:38:35;101130.06;;;19.64;63.22
57827;BME280;43656;57.746;11.780;2023-05-23T05:41:01;101075.75;;;19.29;63.85
57827;BME280;43656;57.746;11.780;2023-05-23T05:43:26;101079.75;;;19.04;64.35
57827;BME280;43656;57.746;11.780;2023-05-23T05:45:52;101130.06;;;19.30;65.31
57827;BME280;43656;57.746;11.780;2023-05-23T05:48:17;101135.88;;;19.34;65.73
57827;BME280;43656;57.746;11.780;2023-05-23T05:50:43;101125.69;;;19.29;65.97
57827;BME280;43656;57.746;11.780;2023-05-23T05:53:10;101125.34;;;19.25;66.10
57827;BME280;43656;57.746;11.780;2023-05-23T05:55:36;101114.50;;;19.14;66.41
57827;BME280;43656;57.746;11.780;2023-05-23T05:58:02;101122.63;;;18.92;67.51
57827;BME280;43656;57.746;11.780;2023-05-23T06:00:28;101118.09;;;18.97;67.28
57827;BME280;43656;57.746;11.780;2023-05-23T06:02:53;101099.84;;;18.98;67.26
57827;BME280;43656;57.746;11.780;2023-05-23T06:05:21;101126.50;;;18.96;67.96
57827;BME280;43656;57.746;11.780;2023-05-23T06:07:48;101106.50;;;18.90;68.21
57827;BME280;43656;57.746;11.780;2023-05-23T06:10:14;101109.91;;;18.97;68.55
57827;BME280;43656;57.746;11.780;2023-05-23T06:12:40;101107.53;;;19.01;68.25
57827;BME280;43656;57.746;11.780;2023-05-23T06:15:07;101106.34;;;18.97;68.38
57827;BME280;43656;57.746;11.780;2023-05-23T06:17:33;101100.22;;;18.90;68.30
57827;BME280;43656;57.746;11.780;2023-05-23T06:19:59;101121.81;;;18.91;68.41
57827;BME280;43656;57.746;11.780;2023-05-23T06:22:24;101087.69;;;18.89;68.30
57827;BME280;43656;57.746;11.780;2023-05-23T06:24:49;101092.97;;;18.95;68.18
57827;BME280;43656;57.746;11.780;2023-05-23T06:27:15;101099.00;;;18.97;68.83
57827;BME280;43656;57.746;11.780;2023-05-23T06:29:40;101106.81;;;18.94;68.93
57827;BME280;43656;57.746;11.780;2023-05-23T06:32:06;101105.28;;;18.98;68.63
57827;BME280;43656;57.746;11.780;2023-05-23T06:34:31;101110.63;;;19.10;68.86
57827;BME280;43656;57.746;11.780;2023-05-23T06:36:57;101103.09;;;19.17;68.16
57827;BME280;43656;57.746;11.780;2023-05-23T06:39:22;101097.66;;;19.00;67.72
57827;BME280;43656;57.746;11.780;2023-05-23T06:41:48;101082.38;;;18.82;67.59
57827;BME280;43656;57.746;11.780;2023-05-23T06:44:14;101078.03;;;18.52;68.59
57827;BME280;43656;57.746;11.780;2023-05-23T06:46:41;101062.25;;;18.38;69.23
57827;BME280;43656;57.746;11.780;2023-05-23T06:49:07;101086.25;;;18.41;69.60
57827;BME280;43656;57.746;11.780;2023-05-23T06:51:32;101129.41;;;18.61;68.75
57827;BME280;43656;57.746;11.780;2023-05-23T06:53:57;101116.69;;;18.66;68.40
57827;BME280;43656;57.746;11.780;2023-05-23T06:56:23;101056.41;;;18.63;68.10
57827;BME280;43656;57.746;11.780;2023-05-23T06:58:48;101048.16;;;18.58;69.39
57827;BME280;43656;57.746;11.780;2023-05-23T07:01:14;101041.00;;;18.40;70.23
57827;BME280;43656;57.746;11.780;2023-05-23T07:03:39;101055.16;;;18.70;69.37
57827;BME280;43656;57.746;11.780;2023-05-23T07:06:07;101067.66;;;19.00;69.04
57827;BME280;43656;57.746;11.780;2023-05-23T07:08:33;101049.91;;;18.97;69.30
57827;BME280;43656;57.746;11.780;2023-05-23T07:10:58;101124.44;;;19.03;69.65
57827;BME280;43656;57.746;11.780;2023-05-23T07:13:24;101113.97;;;19.12;69.60
57827;BME280;43656;57.746;11.780;2023-05-23T07:15:49;101082.88;;;18.96;69.65
57827;BME280;43656;57.746;11.780;2023-05-23T07:18:15;101091.81;;;19.08;68.87
57827;BME280;43656;57.746;11.780;2023-05-23T07:20:40;101082.69;;;19.19;68.11
57827;BME280;43656;57.746;11.780;2023-05-23T07:23:06;101115.88;;;19.50;67.81
57827;BME280;43656;57.746;11.780;2023-05-23T07:25:31;101102.41;;;19.60;67.45
57827;BME280;43656;57.746;11.780;2023-05-23T07:27:56;101084.47;;;19.64;66.63
57827;BME280;43656;57.746;11.780;2023-05-23T07:30:22;101098.50;;;19.73;65.45
57827;BME280;43656;57.746;11.780;2023-05-23T07:32:48;101113.50;;;19.92;64.86
57827;BME280;43656;57.746;11.780;2023-05-23T07:35:14;101093.88;;;19.95;63.61
57827;BME280;43656;57.746;11.780;2023-05-23T07:37:41;101084.28;;;19.71;64.01
57827;BME280;43656;57.746;11.780;2023-05-23T07:40:06;101095.69;;;19.90;62.61
57827;BME280;43656;57.746;11.780;2023-05-23T07:42:35;101051.56;;;19.76;61.86
57827;BME280;43656;57.746;11.780;2023-05-23T07:45:01;101104.31;;;20.26;61.37
57827;BME280;43656;57.746;11.780;2023-05-23T07:47:27;101111.00;;;20.35;59.92
57827;BME280;43656;57.746;11.780;2023-05-23T07:49:52;101111.25;;;20.33;58.97
57827;BME280;43656;57.746;11.780;2023-05-23T07:52:18;101088.00;;;20.31;58.31
57827;BME280;43656;57.746;11.780;2023-05-23T07:54:44;101070.88;;;20.13;58.36
57827;BME280;43656;57.746;11.780;2023-05-23T07:57:10;101102.75;;;20.30;57.70
57827;BME280;43656;57.746;11.780;2023-05-23T07:59:37;101108.31;;;20.40;57.65
57827;BME280;43656;57.746;11.780;2023-05-23T08:02:02;101103.38;;;20.37;57.11
57827;BME280;43656;57.746;11.780;2023-05-23T08:04:28;101094.47;;;20.25;56.43
57827;BME280;43656;57.746;11.780;2023-05-23T08:06:54;101117.22;;;20.52;55.66
57827;BME280;43656;57.746;11.780;2023-05-23T08:09:20;101123.50;;;20.80;55.79
57827;BME280;43656;57.746;11.780;2023-05-23T08:11:46;101115.34;;;20.85;55.25
57827;BME280;43656;57.746;11.780;2023-05-23T08:14:11;101129.91;;;20.91;55.57
57827;BME280;43656;57.746;11.780;2023-05-23T08:16:37;101105.53;;;20.89;55.17
57827;BME280;43656;57.746;11.780;2023-05-23T08:19:02;101122.66;;;20.79;56.11
57827;BME280;43656;57.746;11.780;2023-05-23T08:21:28;101097.91;;;20.37;58.43
57827;BME280;43656;57.746;11.780;2023-05-23T08:23:54;101113.00;;;20.17;60.48
57827;BME280;43656;57.746;11.780;2023-05-23T08:26:19;101121.69;;;20.14;61.14
57827;BME280;43656;57.746;11.780;2023-05-23T08:28:45;101126.25;;;20.09;61.13
57827;BME280;43656;57.746;11.780;2023-05-23T08:31:11;101108.50;;;19.84;62.48
57827;BME280;43656;57.746;11.780;2023-05-23T08:33:38;101109.03;;;19.86;62.64
57827;BME280;43656;57.746;11.780;2023-05-23T08:36:03;101097.38;;;19.91;62.42
57827;BME280;43656;57.746;11.780;2023-05-23T08:38:29;101110.84;;;19.98;62.22
57827;BME280;43656;57.746;11.780;2023-05-23T08:40:55;101093.94;;;20.01;61.58
57827;BME280;43656;57.746;11.780;2023-05-23T08:43:20;101096.59;;;20.17;59.39
57827;BME280;43656;57.746;11.780;2023-05-23T08:45:48;101101.09;;;20.29;56.88
57827;BME280;43656;57.746;11.780;2023-05-23T08:48:18;101102.00;;;20.12;54.45
57827;BME280;43656;57.746;11.780;2023-05-23T08:50:45;101108.16;;;20.25;51.71
57827;BME280;43656;57.746;11.780;2023-05-23T08:53:14;101083.56;;;20.25;50.18
57827;BME280;43656;57.746;11.780;2023-05-23T08:55:45;101094.19;;;20.21;49.79
57827;BME280;43656;57.746;11.780;2023-05-23T08:58:10;101102.78;;;20.57;48.62
57827;BME280;43656;57.746;11.780;2023-05-23T09:00:37;101104.97;;;20.87;46.68
57827;BME280;43656;57.746;11.780;2023-05-23T09:03:03;101096.09;;;21.07;45.32
57827;BME280;43656;57.746;11.780;2023-05-23T09:05:29;101082.59;;;20.95;44.39
57827;BME280;43656;57.746;11.780;2023-05-23T09:07:54;101099.09;;;21.05;44.63
57827;BME280;43656;57.746;11.780;2023-05-23T09:10:21;101090.19;;;21.25;44.13
57827;BME280;43656;57.746;11.780;2023-05-23T09:12:46;101072.41;;;21.23;43.78
57827;BME280;43656;57.746;11.780;2023-05-23T09:15:12;101094.72;;;21.42;43.58
57827;BME280;43656;57.746;11.780;2023-05-23T09:17:38;101092.81;;;21.42;43.67
57827;BME280;43656;57.746;11.780;2023-05-23T09:20:10;101080.00;;;21.10;43.27
57827;BME280;43656;57.746;11.780;2023-05-23T09:22:37;101084.72;;;20.83;45.97
57827;BME280;43656;57.746;11.780;2023-05-23T09:25:04;101093.28;;;20.64;46.84
57827;BME280;43656;57.746;11.780;2023-05-23T09:27:29;101097.25;;;20.52;48.52
57827;BME280;43656;57.746;11.780;2023-05-23T09:29:55;101091.41;;;20.43;50.84
57827;BME280;43656;57.746;11.780;2023-05-23T09:32:21;101098.53;;;20.44;51.81
57827;BME280;43656;57.746;11.780;2023-05-23T09:37:15;101084.25;;;20.37;53.03
57827;BME280;43656;57.746;11.780;2023-05-23T09:39:46;101084.47;;;20.35;53.23
57827;BME280;43656;57.746;11.780;2023-05-23T09:42:20;101079.91;;;19.92;54.12
57827;BME280;43656;57.746;11.780;2023-05-23T09:44:49;101086.88;;;19.83;55.21
57827;BME280;43656;57.746;11.780;2023-05-23T09:47:15;101088.94;;;19.70;55.59
57827;BME280;43656;57.746;11.780;2023-05-23T09:49:45;101095.44;;;19.69;57.14
57827;BME280;43656;57.746;11.780;2023-05-23T09:52:10;101104.72;;;20.12;57.18
57827;BME280;43656;57.746;11.780;2023-05-23T09:54:36;101106.75;;;20.49;58.39
57827;BME280;43656;57.746;11.780;2023-05-23T09:57:02;101100.75;;;20.47;62.18
57827;BME280;43656;57.746;11.780;2023-05-23T09:59:31;101113.72;;;20.35;64.98
57827;BME280;43656;57.746;11.780;2023-05-23T10:01:59;101106.75;;;20.22;66.70
57827;BME280;43656;57.746;11.780;2023-05-23T10:04:30;101113.03;;;19.79;71.15
57827;BME280;43656;57.746;11.780;2023-05-23T10:06:58;101100.09;;;19.52;74.06
57827;BME280;43656;57.746;11.780;2023-05-23T10:09:27;101096.94;;;19.05;78.50
57827;BME280;43656;57.746;11.780;2023-05-23T10:12:35;101109.16;;;18.85;80.54
57827;BME280;43656;57.746;11.780;2023-05-23T10:15:04;101105.03;;;18.83;81.86
57827;BME280;43656;57.746;11.780;2023-05-23T10:20:17;101071.75;;;18.23;85.41
57827;BME280;43656;57.746;11.780;2023-05-23T10:22:45;101111.69;;;18.46;85.07
57827;BME280;43656;57.746;11.780;2023-05-23T10:25:11;101121.31;;;18.66;83.50
57827;BME280;43656;57.746;11.780;2023-05-23T10:27:38;101111.81;;;18.51;84.63
57827;BME280;43656;57.746;11.780;2023-05-23T10:30:07;101131.69;;;18.52;84.74
57827;BME280;43656;57.746;11.780;2023-05-23T10:32:34;101104.75;;;18.39;84.51
57827;BME280;43656;57.746;11.780;2023-05-23T10:37:58;101108.22;;;17.94;89.43
57827;BME280;43656;57.746;11.780;2023-05-23T10:43:17;101123.63;;;17.88;90.77
57827;BME280;43656;57.746;11.780;2023-05-23T10:45:44;101096.63;;;17.87;90.05
57827;BME280;43656;57.746;11.780;2023-05-23T10:51:12;101082.03;;;18.33;88.06
57827;BME280;43656;57.746;11.780;2023-05-23T10:53:43;101110.69;;;18.64;87.34
57827;BME280;43656;57.746;11.780;2023-05-23T10:56:10;101107.19;;;18.52;87.25
57827;BME280;43656;57.746;11.780;2023-05-23T10:58:43;101115.38;;;18.40;87.35
57827;BME280;43656;57.746;11.780;2023-05-23T11:01:12;101112.78;;;18.45;87.77
57827;BME280;43656;57.746;11.780;2023-05-23T11:14:16;101088.56;;;18.32;87.19
57827;BME280;43656;57.746;11.780;2023-05-23T11:16:43;101108.00;;;18.52;86.60
57827;BME280;43656;57.746;11.780;2023-05-23T11:21:49;101088.22;;;18.28;87.76
57827;BME280;43656;57.746;11.780;2023-05-23T11:24:15;101100.78;;;18.18;88.24
57827;BME280;43656;57.746;11.780;2023-05-23T11:26:53;101100.09;;;18.22;87.04
57827;BME280;43656;57.746;11.780;2023-05-23T11:29:24;101106.19;;;18.29;84.78
57827;BME280;43656;57.746;11.780;2023-05-23T11:31:50;101095.28;;;18.01;82.58
57827;BME280;43656;57.746;11.780;2023-05-23T11:34:17;101114.38;;;18.29;82.38
57827;BME280;43656;57.746;11.780;2023-05-23T11:36:42;101110.38;;;18.49;82.40
57827;BME280;43656;57.746;11.780;2023-05-23T11:39:08;101106.53;;;18.62;81.76
57827;BME280;43656;57.746;11.780;2023-05-23T11:41:34;101111.97;;;18.45;83.79
57827;BME280;43656;57.746;11.780;2023-05-23T11:44:00;101095.16;;;18.36;83.80
57827;BME280;43656;57.746;11.780;2023-05-23T11:46:26;101108.25;;;18.51;85.35
57827;BME280;43656;57.746;11.780;2023-05-23T11:48:52;101094.22;;;18.59;85.31
57827;BME280;43656;57.746;11.780;2023-05-23T11:51:17;101078.19;;;18.63;85.44
57827;BME280;43656;57.746;11.780;2023-05-23T11:53:45;101089.22;;;18.39;84.69
57827;BME280;43656;57.746;11.780;2023-05-23T11:56:14;101084.91;;;18.26;83.57
57827;BME280;43656;57.746;11.780;2023-05-23T11:58:39;101090.34;;;18.55;82.16
57827;BME280;43656;57.746;11.780;2023-05-23T12:01:10;101111.47;;;18.93;81.46
57827;BME280;43656;57.746;11.780;2023-05-23T12:03:50;101118.16;;;19.19;81.81
57827;BME280;43656;57.746;11.780;2023-05-23T12:06:20;101111.53;;;19.32;82.12
57827;BME280;43656;57.746;11.780;2023-05-23T12:08:46;101116.09;;;19.27;81.97
57827;BME280;43656;57.746;11.780;2023-05-23T12:11:12;101086.91;;;19.10;82.21
57827;BME280;43656;57.746;11.780;2023-05-23T12:13:40;101113.84;;;19.23;82.57
57827;BME280;43656;57.746;11.780;2023-05-23T12:16:07;101115.44;;;19.19;82.71
57827;BME280;43656;57.746;11.780;2023-05-23T12:18:33;101120.97;;;19.24;82.89
57827;BME280;43656;57.746;11.780;2023-05-23T12:21:04;101121.72;;;19.20;82.45
57827;BME280;43656;57.746;11.780;2023-05-23T12:23:33;101120.88;;;19.19;82.28
57827;BME280;43656;57.746;11.780;2023-05-23T12:26:03;101115.38;;;19.14;82.46
57827;BME280;43656;57.746;11.780;2023-05-23T12:28:42;101114.94;;;19.22;82.34
57827;BME280;43656;57.746;11.780;2023-05-23T12:31:10;101118.25;;;19.08;82.34
57827;BME280;43656;57.746;11.780;2023-05-23T12:33:40;101117.19;;;18.92;81.95
57827;BME280;43656;57.746;11.780;2023-05-23T12:36:10;101112.13;;;19.00;81.98
57827;BME280;43656;57.746;11.780;2023-05-23T12:38:36;101108.41;;;19.07;81.74
57827;BME280;43656;57.746;11.780;2023-05-23T12:41:14;101114.13;;;19.05;82.41
57827;BME280;43656;57.746;11.780;2023-05-23T12:43:47;101108.41;;;18.73;82.65
57827;BME280;43656;57.746;11.780;2023-05-23T12:46:13;101099.00;;;18.52;82.88
57827;BME280;43656;57.746;11.780;2023-05-23T12:48:40;101092.22;;;18.38;83.50
57827;BME280;43656;57.746;11.780;2023-05-23T12:51:05;101099.34;;;18.55;83.17
57827;BME280;43656;57.746;11.780;2023-05-23T12:53:31;101073.25;;;18.60;83.00
57827;BME280;43656;57.746;11.780;2023-05-23T12:55:56;101071.16;;;18.50;84.51
57827;BME280;43656;57.746;11.780;2023-05-23T12:58:22;101088.16;;;18.86;83.57
57827;BME280;43656;57.746;11.780;2023-05-23T13:00:48;101085.69;;;18.84;83.85
57827;BME280;43656;57.746;11.780;2023-05-23T13:03:13;101094.31;;;18.64;85.93
57827;BME280;43656;57.746;11.780;2023-05-23T13:05:39;101092.38;;;18.76;85.31
57827;BME280;43656;57.746;11.780;2023-05-23T13:08:04;101089.00;;;18.86;84.01
57827;BME280;43656;57.746;11.780;2023-05-23T13:10:30;101100.56;;;19.10;83.58